Rockeagle, Wyoming
Current Conditions -  °F | °C
As of 1:53 PM on Tuesday 25 Nov 2014 (Local Time) from KTOR Reporting Station
Overcast Overcast  
Wind Chill: 30°   Ceiling: 6500
Heat Index: 40°   Visibility: 10mi
Dew Point: 28°   Wind: 20mph
Humidity: 63%   Direction: 330°NNW
Pressure: 29.83"   Gusts: 29mph
Location:  42.1479°N, 104.31°W
Report Text: KTOR 252053Z AUTO 33017G25KT 10SM OVC065 04/M02 A2983 RMK AO2 RAE00 SLP124 P0000 60000 T00441022 55001
Loading
Personal Weather Stations






























Interactive Weather Map New forecast layout! Learn more

10-Day Weather Forecast

Advertisements
Track Severe Weather on mobile